createdAt,value
2023-05-10T00:00:47.425Z,1.13
2023-05-10T00:03:14.540Z,1.50
2023-05-10T00:05:41.795Z,1.40
2023-05-10T00:08:09.163Z,1.30
2023-05-10T00:10:37.254Z,1.20
2023-05-10T00:13:04.551Z,11.07
2023-05-10T00:15:31.727Z,1.60
2023-05-10T00:17:58.661Z,1.50
2023-05-10T00:20:25.784Z,1.30
2023-05-10T00:22:52.682Z,1.60
2023-05-10T00:25:19.503Z,2.00
2023-05-10T00:27:46.381Z,1.60
2023-05-10T00:30:13.519Z,1.90
2023-05-10T00:32:40.639Z,3.13
2023-05-10T00:35:08.086Z,1.90
2023-05-10T00:37:34.956Z,3.13
2023-05-10T00:40:01.908Z,2.33
2023-05-10T00:42:29.776Z,2.07
2023-05-10T00:44:57.400Z,3.30
2023-05-10T00:47:24.880Z,2.20
2023-05-10T00:49:53.000Z,2.00
2023-05-10T00:52:20.332Z,1.90
2023-05-10T00:54:48.701Z,1.37
2023-05-10T00:57:15.978Z,1.40
2023-05-10T00:59:43.120Z,1.50
2023-05-10T01:02:10.174Z,2.23
2023-05-10T01:04:37.496Z,1.10
2023-05-10T01:07:04.524Z,1.23
2023-05-10T01:09:31.893Z,1.00
2023-05-10T01:11:59.438Z,1.80
2023-05-10T01:14:27.650Z,0.90
2023-05-10T01:16:55.117Z,1.27
2023-05-10T01:19:27.158Z,1.70
2023-05-10T01:22:33.970Z,2.10
2023-05-10T01:25:00.847Z,3.00
2023-05-10T01:27:56.089Z,3.20
2023-05-10T01:30:26.130Z,5.93
2023-05-10T01:33:15.724Z,4.67
2023-05-10T01:36:14.677Z,6.43
2023-05-10T01:38:48.416Z,6.77
2023-05-10T01:41:29.566Z,7.90
2023-05-10T01:43:56.422Z,12.33
2023-05-10T01:46:29.816Z,7.53
2023-05-10T01:49:00.416Z,5.83
2023-05-10T01:51:38.213Z,7.67
2023-05-10T01:54:07.103Z,6.63
2023-05-10T01:56:38.879Z,7.67
2023-05-10T01:59:09.986Z,9.03
2023-05-10T02:01:39.077Z,6.63
2023-05-10T02:04:10.013Z,7.10
2023-05-10T02:06:39.191Z,7.23
2023-05-10T02:09:07.703Z,7.83
2023-05-10T02:11:35.002Z,5.10
2023-05-10T02:14:02.966Z,5.53
2023-05-10T02:16:32.070Z,8.63
2023-05-10T02:19:02.273Z,6.40
2023-05-10T02:21:30.725Z,6.97
2023-05-10T02:23:59.047Z,3.87
2023-05-10T02:26:27.928Z,4.63
2023-05-10T02:28:56.162Z,3.70
2023-05-10T02:31:24.080Z,4.87
2023-05-10T02:33:52.426Z,3.77
2023-05-10T02:36:21.236Z,3.37
2023-05-10T02:38:50.026Z,1.80
2023-05-10T02:41:17.880Z,1.50
2023-05-10T02:43:45.615Z,1.23
2023-05-10T02:46:12.539Z,1.00
2023-05-10T02:48:39.709Z,1.07
2023-05-10T02:51:08.495Z,0.80
2023-05-10T02:53:39.434Z,0.70
2023-05-10T02:56:14.816Z,0.60
2023-05-10T02:58:41.770Z,0.43
2023-05-10T03:01:09.011Z,0.97
2023-05-10T03:03:36.179Z,0.50
2023-05-10T03:06:03.466Z,0.50
2023-05-10T03:08:30.909Z,0.60
2023-05-10T03:11:15.572Z,0.47
2023-05-10T03:13:47.330Z,0.50
2023-05-10T03:16:21.617Z,0.40
2023-05-10T03:19:12.117Z,0.30
2023-05-10T03:21:43.333Z,0.30
2023-05-10T03:24:13.414Z,0.30
2023-05-10T03:26:41.896Z,0.50
2023-05-10T03:29:15.972Z,0.40
2023-05-10T03:31:43.326Z,0.40
2023-05-10T03:34:10.452Z,1.50
2023-05-10T03:36:37.476Z,1.57
2023-05-10T03:39:04.818Z,1.10
2023-05-10T03:41:32.006Z,3.27
2023-05-10T03:43:58.909Z,1.50
2023-05-10T03:46:25.832Z,1.63
2023-05-10T03:48:53.330Z,3.73
2023-05-10T03:51:20.753Z,2.87
2023-05-10T03:53:47.929Z,4.67
2023-05-10T03:56:14.916Z,2.77
2023-05-10T03:58:41.903Z,5.50
2023-05-10T04:01:08.780Z,4.37
2023-05-10T04:03:37.459Z,4.20
2023-05-10T04:06:06.466Z,4.47
2023-05-10T04:08:33.532Z,4.63
2023-05-10T04:11:08.663Z,5.20
2023-05-10T04:13:35.978Z,4.53
2023-05-10T04:16:03.353Z,4.10
2023-05-10T04:18:30.355Z,4.47
2023-05-10T04:20:57.302Z,4.00
2023-05-10T04:23:24.310Z,3.93
2023-05-10T04:25:51.246Z,3.10
2023-05-10T04:28:18.102Z,3.20
2023-05-10T04:30:45.015Z,2.73
2023-05-10T04:33:12.033Z,4.80
2023-05-10T04:35:39.881Z,4.97
2023-05-10T04:38:06.700Z,7.60
2023-05-10T04:40:33.776Z,8.30
2023-05-10T04:43:00.722Z,8.50
2023-05-10T04:45:27.601Z,8.93
2023-05-10T04:47:54.556Z,7.43
2023-05-10T04:50:21.464Z,6.00
2023-05-10T04:52:48.325Z,5.70
2023-05-10T04:55:15.376Z,4.00
2023-05-10T04:57:42.190Z,3.87
2023-05-10T05:00:09.626Z,2.60
2023-05-10T05:02:36.713Z,2.77
2023-05-10T05:05:03.800Z,2.60
2023-05-10T05:07:32.241Z,2.10
2023-05-10T05:09:59.362Z,2.00
2023-05-10T05:12:26.206Z,1.00
2023-05-10T05:14:53.428Z,2.63
2023-05-10T05:17:20.636Z,0.40
2023-05-10T05:19:47.800Z,0.37
2023-05-10T05:22:16.193Z,0.40
2023-05-10T05:24:46.756Z,0.50
2023-05-10T05:27:13.622Z,0.60
2023-05-10T05:29:40.636Z,0.70
2023-05-10T05:32:09.577Z,0.70
2023-05-10T05:34:36.713Z,0.87
2023-05-10T05:37:03.681Z,1.00
2023-05-10T05:39:30.676Z,1.00
2023-05-10T05:41:57.505Z,1.30
2023-05-10T05:44:24.322Z,0.90
2023-05-10T05:46:51.292Z,1.40
2023-05-10T05:49:18.129Z,1.30
2023-05-10T05:51:45.546Z,2.33
2023-05-10T05:54:12.836Z,1.40
2023-05-10T05:56:39.877Z,2.50
2023-05-10T05:59:07.010Z,1.70
2023-05-10T06:01:34.140Z,3.23
2023-05-10T06:04:01.140Z,2.80
2023-05-10T06:06:28.958Z,2.00
2023-05-10T06:08:56.121Z,2.20
2023-05-10T06:11:22.984Z,2.90
2023-05-10T06:13:51.327Z,2.17
2023-05-10T06:16:18.873Z,2.07
2023-05-10T06:18:45.859Z,1.97
2023-05-10T06:21:12.693Z,1.80
2023-05-10T06:23:39.637Z,1.93
2023-05-10T06:26:06.473Z,1.47
2023-05-10T06:28:34.572Z,2.53
2023-05-10T06:31:01.927Z,1.50
2023-05-10T06:33:28.844Z,1.93
2023-05-10T06:35:56.223Z,1.77
2023-05-10T06:38:23.975Z,1.07
2023-05-10T06:40:51.328Z,1.00
2023-05-10T06:43:18.555Z,1.20
2023-05-10T06:45:45.432Z,1.00
2023-05-10T06:48:12.269Z,2.63
2023-05-10T06:50:39.155Z,1.23
2023-05-10T06:53:06.145Z,0.97
2023-05-10T06:55:33.332Z,0.63
2023-05-10T06:58:00.254Z,0.90
2023-05-10T07:00:27.222Z,0.70
2023-05-10T07:02:54.092Z,0.80
2023-05-10T07:05:21.613Z,0.80
2023-05-10T07:07:49.517Z,0.87
2023-05-10T07:10:16.383Z,4.50
2023-05-10T07:12:43.355Z,1.63
2023-05-10T07:15:11.717Z,1.40
2023-05-10T07:17:39.587Z,1.30
2023-05-10T07:20:07.633Z,2.23
2023-05-10T07:22:34.688Z,1.27
2023-05-10T07:25:01.920Z,2.03
2023-05-10T07:27:28.838Z,1.20
2023-05-10T07:29:56.196Z,2.90
2023-05-10T07:32:23.269Z,1.60
2023-05-10T07:34:50.251Z,2.63
2023-05-10T07:37:17.281Z,2.20
2023-05-10T07:39:44.959Z,1.63
2023-05-10T07:42:11.835Z,3.27
2023-05-10T07:44:38.647Z,1.67
2023-05-10T07:47:05.510Z,1.57
2023-05-10T07:49:32.559Z,2.70
2023-05-10T07:52:00.044Z,1.87
2023-05-10T07:54:27.386Z,2.07
2023-05-10T07:56:54.205Z,1.40
2023-05-10T07:59:21.232Z,1.00
2023-05-10T08:01:48.072Z,2.00
2023-05-10T08:04:14.964Z,4.30
2023-05-10T08:06:42.628Z,2.47
2023-05-10T08:09:10.530Z,2.17
2023-05-10T08:11:37.493Z,4.90
2023-05-10T08:14:04.488Z,2.47
2023-05-10T08:16:31.624Z,2.23
2023-05-10T08:18:58.673Z,3.50
2023-05-10T08:21:25.595Z,6.10
2023-05-10T08:23:52.451Z,3.20
2023-05-10T08:26:19.464Z,3.10
2023-05-10T08:28:48.036Z,3.13
2023-05-10T08:31:16.972Z,3.27
2023-05-10T08:33:44.532Z,2.97
2023-05-10T08:36:11.954Z,2.83
2023-05-10T08:38:39.071Z,5.63
2023-05-10T08:41:07.184Z,1.97
2023-05-10T08:43:36.950Z,2.03
2023-05-10T08:46:06.345Z,2.03
2023-05-10T08:48:35.538Z,2.57
2023-05-10T08:51:04.922Z,2.10
2023-05-10T08:53:37.335Z,4.07
2023-05-10T08:56:04.916Z,3.20
2023-05-10T08:58:32.399Z,2.13
2023-05-10T09:01:00.819Z,3.87
2023-05-10T09:03:27.780Z,3.23
2023-05-10T09:05:57.111Z,4.10
2023-05-10T09:08:27.879Z,3.73
2023-05-10T09:10:55.972Z,4.40
2023-05-10T09:13:24.282Z,2.43
2023-05-10T09:15:52.518Z,2.90
2023-05-10T09:18:19.630Z,3.67
2023-05-10T09:20:46.815Z,2.27
2023-05-10T09:23:13.704Z,5.93
2023-05-10T09:25:42.827Z,3.53
2023-05-10T09:28:10.855Z,2.20
2023-05-10T09:30:37.939Z,3.57
2023-05-10T09:33:05.062Z,3.60
2023-05-10T09:35:34.045Z,5.80
2023-05-10T09:38:03.490Z,3.80
2023-05-10T09:40:31.348Z,4.07
2023-05-10T09:43:07.993Z,3.80
2023-05-10T09:45:38.853Z,5.13
2023-05-10T09:48:07.103Z,5.33
2023-05-10T09:50:35.398Z,2.93
2023-05-10T09:53:04.869Z,3.60
2023-05-10T09:55:47.170Z,4.50
2023-05-10T09:58:15.651Z,5.97
2023-05-10T10:00:44.735Z,8.07
2023-05-10T10:03:31.468Z,6.53
2023-05-10T10:05:58.952Z,5.70
2023-05-10T10:08:28.006Z,6.77
2023-05-10T10:10:55.158Z,5.50
2023-05-10T10:13:22.186Z,5.83
2023-05-10T10:15:52.249Z,5.57
2023-05-10T10:18:24.587Z,7.70
2023-05-10T10:20:51.803Z,6.33
2023-05-10T10:23:18.654Z,5.20
2023-05-10T10:25:49.939Z,5.13
2023-05-10T10:28:48.398Z,6.87
2023-05-10T10:31:32.730Z,6.63
2023-05-10T10:34:05.062Z,4.20
2023-05-10T10:36:34.261Z,4.27
2023-05-10T10:39:03.859Z,4.20
2023-05-10T10:41:36.100Z,5.40
2023-05-10T10:44:31.798Z,4.77
2023-05-10T10:47:10.248Z,6.10
2023-05-10T10:49:43.044Z,4.30
2023-05-10T10:52:17.318Z,5.43
2023-05-10T10:55:01.697Z,4.67
2023-05-10T10:57:31.457Z,5.03
2023-05-10T11:00:20.970Z,5.70
2023-05-10T11:02:50.446Z,4.40
2023-05-10T11:05:39.258Z,4.80
2023-05-10T11:08:12.110Z,6.37
2023-05-10T11:10:40.162Z,7.63
2023-05-10T11:13:10.061Z,5.37
2023-05-10T11:15:39.238Z,5.53
2023-05-10T11:18:22.586Z,5.27
2023-05-10T11:20:53.970Z,4.80
2023-05-10T11:23:22.144Z,4.37
2023-05-10T11:25:50.498Z,5.47
2023-05-10T11:28:20.855Z,3.50
2023-05-10T11:30:48.315Z,4.57
2023-05-10T11:33:20.731Z,4.97
2023-05-10T11:35:47.870Z,4.43
2023-05-10T11:38:15.874Z,4.30
2023-05-10T11:40:43.044Z,6.60
2023-05-10T11:43:11.688Z,6.13
2023-05-10T11:45:38.960Z,4.00
2023-05-10T11:48:06.182Z,5.07
2023-05-10T11:50:33.892Z,5.93
2023-05-10T11:53:01.213Z,5.53
2023-05-10T11:55:28.483Z,5.77
2023-05-10T11:57:56.106Z,5.00
2023-05-10T12:00:23.057Z,4.73
2023-05-10T12:02:50.251Z,3.70
2023-05-10T12:05:18.428Z,3.97
2023-05-10T12:07:45.723Z,4.67
2023-05-10T12:10:18.965Z,7.17
2023-05-10T12:12:50.717Z,5.40
2023-05-10T12:15:22.975Z,6.70
2023-05-10T12:17:50.877Z,8.40
2023-05-10T12:20:22.875Z,4.40
2023-05-10T12:22:59.673Z,5.50
2023-05-10T12:25:31.938Z,6.17
2023-05-10T12:28:01.953Z,6.63
2023-05-10T12:30:30.345Z,7.30
2023-05-10T12:33:11.701Z,9.10
2023-05-10T12:35:52.918Z,6.13
2023-05-10T12:38:51.090Z,5.60
2023-05-10T12:41:19.236Z,7.87
2023-05-10T12:43:47.660Z,7.27
2023-05-10T12:46:16.753Z,6.43
2023-05-10T12:48:45.133Z,5.67
2023-05-10T12:51:14.098Z,5.80
2023-05-10T12:53:44.229Z,7.40
2023-05-10T12:56:12.412Z,4.60
2023-05-10T12:58:39.633Z,5.47
2023-05-10T13:01:06.999Z,6.67
2023-05-10T13:03:33.944Z,5.10
2023-05-10T13:06:01.115Z,5.23
2023-05-10T13:08:30.739Z,8.83
2023-05-10T13:10:57.602Z,7.03
2023-05-10T13:13:24.608Z,8.00
2023-05-10T13:15:51.499Z,5.97
2023-05-10T13:18:18.819Z,4.77
2023-05-10T13:20:45.847Z,6.27
2023-05-10T13:23:12.755Z,6.33
2023-05-10T13:25:40.264Z,5.33
2023-05-10T13:28:07.226Z,7.17
2023-05-10T13:30:34.125Z,5.97
2023-05-10T13:33:01.860Z,4.57
2023-05-10T13:35:29.019Z,5.90
2023-05-10T13:37:58.738Z,5.23
2023-05-10T13:40:25.802Z,3.90
2023-05-10T13:42:53.801Z,4.73
2023-05-10T13:45:20.734Z,7.17
2023-05-10T13:47:48.148Z,6.53
2023-05-10T13:50:15.025Z,7.23
2023-05-10T13:52:41.957Z,5.23
2023-05-10T13:55:09.294Z,5.37
2023-05-10T13:57:37.032Z,4.03
2023-05-10T14:00:04.325Z,4.70
2023-05-10T14:02:35.098Z,4.50
2023-05-10T14:05:02.668Z,3.10
2023-05-10T14:07:29.584Z,3.90
2023-05-10T14:09:56.511Z,5.80
2023-05-10T14:12:23.428Z,2.80
2023-05-10T14:14:50.315Z,3.60
2023-05-10T14:17:17.314Z,3.07
2023-05-10T14:19:44.319Z,2.10
2023-05-10T14:22:11.285Z,4.23
2023-05-10T14:24:39.584Z,1.83
2023-05-10T14:27:07.073Z,4.30
2023-05-10T14:29:34.157Z,2.43
2023-05-10T14:32:01.185Z,3.10
2023-05-10T14:34:28.445Z,2.83
2023-05-10T14:36:55.296Z,2.77
2023-05-10T14:39:22.459Z,3.23
2023-05-10T14:41:49.688Z,2.23
2023-05-10T14:44:16.690Z,2.40
2023-05-10T14:46:43.730Z,2.70
2023-05-10T14:49:10.678Z,2.00
2023-05-10T14:51:37.960Z,2.37
2023-05-10T14:54:04.980Z,2.13
2023-05-10T14:56:32.841Z,2.33
2023-05-10T14:59:00.479Z,3.43
2023-05-10T15:01:28.025Z,2.33
2023-05-10T15:03:55.948Z,2.30
2023-05-10T15:06:33.203Z,2.20
2023-05-10T15:09:00.774Z,2.63
2023-05-10T15:11:27.849Z,2.50
2023-05-10T15:13:54.755Z,3.57
2023-05-10T15:16:22.409Z,4.40
2023-05-10T15:18:49.697Z,6.00
2023-05-10T15:21:16.683Z,3.67
2023-05-10T15:23:43.894Z,7.40
2023-05-10T15:26:10.768Z,3.33
2023-05-10T15:28:37.763Z,3.53
2023-05-10T15:31:04.878Z,3.33
2023-05-10T15:33:31.902Z,4.60
2023-05-10T15:35:58.827Z,3.93
2023-05-10T15:38:25.656Z,3.07
2023-05-10T15:40:57.681Z,3.90
2023-05-10T15:43:24.678Z,3.43
2023-05-10T15:45:51.624Z,3.27
2023-05-10T15:48:18.547Z,3.23
2023-05-10T15:50:46.253Z,3.87
2023-05-10T15:53:13.341Z,3.43
2023-05-10T15:55:40.275Z,5.57
2023-05-10T15:58:07.268Z,3.37
2023-05-10T16:00:34.397Z,3.77
2023-05-10T16:03:01.637Z,3.00
2023-05-10T16:05:32.406Z,3.10
2023-05-10T16:08:00.484Z,3.50
2023-05-10T16:10:28.195Z,3.10
2023-05-10T16:12:55.718Z,4.03
2023-05-10T16:15:22.791Z,5.83
2023-05-10T16:17:49.877Z,4.43
2023-05-10T16:20:16.961Z,3.53
2023-05-10T16:22:44.598Z,4.70
2023-05-10T16:25:13.365Z,4.00
2023-05-10T16:27:40.919Z,3.80
2023-05-10T16:30:08.662Z,4.03
2023-05-10T16:32:35.652Z,10.33
2023-05-10T16:35:03.271Z,5.10
2023-05-10T16:37:30.359Z,4.50
2023-05-10T16:39:57.220Z,9.90
2023-05-10T16:42:25.268Z,4.50
2023-05-10T16:44:52.593Z,5.37
2023-05-10T16:47:19.630Z,5.77
2023-05-10T16:49:46.741Z,4.20
2023-05-10T16:52:14.049Z,3.60
2023-05-10T16:54:40.904Z,3.70
2023-05-10T16:57:08.679Z,3.17
2023-05-10T16:59:35.752Z,4.17
2023-05-10T17:02:03.327Z,5.47
2023-05-10T17:04:30.318Z,3.13
2023-05-10T17:06:57.716Z,17.20
2023-05-10T17:09:24.606Z,8.93
2023-05-10T17:11:51.754Z,4.07
2023-05-10T17:14:18.696Z,3.83
2023-05-10T17:16:45.599Z,4.83
2023-05-10T17:19:12.523Z,5.37
2023-05-10T17:21:39.409Z,4.83
2023-05-10T17:24:06.643Z,4.57
2023-05-10T17:26:34.787Z,3.43
2023-05-10T17:29:01.853Z,4.90
2023-05-10T17:31:28.808Z,7.87
2023-05-10T17:33:56.475Z,6.43
2023-05-10T17:36:23.524Z,3.90
2023-05-10T17:38:50.636Z,3.90
2023-05-10T17:41:17.556Z,5.20
2023-05-10T17:43:44.799Z,4.13
2023-05-10T17:46:12.954Z,3.80
2023-05-10T17:48:39.963Z,3.77
2023-05-10T17:51:07.077Z,3.90
2023-05-10T17:53:35.284Z,3.50
2023-05-10T17:56:02.543Z,4.37
2023-05-10T17:58:29.566Z,3.57
2023-05-10T18:00:57.649Z,3.13
2023-05-10T18:03:24.739Z,3.03
2023-05-10T18:05:52.114Z,3.33
2023-05-10T18:08:22.820Z,3.57
2023-05-10T18:10:49.868Z,5.27
2023-05-10T18:13:17.063Z,4.43
2023-05-10T18:15:44.489Z,5.13
2023-05-10T18:18:11.517Z,3.77
2023-05-10T18:20:38.485Z,4.83
2023-05-10T18:23:06.403Z,7.40
2023-05-10T18:25:33.304Z,4.77
2023-05-10T18:28:00.605Z,5.00
2023-05-10T18:30:27.723Z,4.73
2023-05-10T18:32:55.275Z,4.77
2023-05-10T18:35:22.599Z,4.70
2023-05-10T18:37:49.819Z,5.73
2023-05-10T18:40:17.550Z,4.13
2023-05-10T18:42:46.739Z,5.77
2023-05-10T18:45:14.012Z,4.83
2023-05-10T18:47:40.919Z,5.80
2023-05-10T18:50:08.378Z,4.53
2023-05-10T18:52:36.923Z,5.43
2023-05-10T18:55:04.363Z,4.30
2023-05-10T18:57:31.704Z,4.50
2023-05-10T18:59:58.752Z,5.83
2023-05-10T19:02:26.784Z,4.80
2023-05-10T19:04:53.973Z,5.50
2023-05-10T19:07:21.270Z,4.27
2023-05-10T19:09:48.218Z,7.47
2023-05-10T19:12:15.133Z,7.10
2023-05-10T19:14:42.076Z,6.47
2023-05-10T19:17:09.449Z,5.13
2023-05-10T19:19:37.974Z,3.80
2023-05-10T19:22:05.195Z,5.07
2023-05-10T19:24:35.456Z,3.17
2023-05-10T19:27:03.082Z,5.17
2023-05-10T19:29:30.185Z,3.23
2023-05-10T19:31:57.529Z,3.90
2023-05-10T19:34:25.010Z,4.17
2023-05-10T19:36:51.990Z,4.73
2023-05-10T19:39:19.610Z,2.87
2023-05-10T19:41:47.822Z,3.00
2023-05-10T19:44:15.196Z,4.50
2023-05-10T19:46:42.071Z,3.10
2023-05-10T19:49:08.935Z,6.03
2023-05-10T19:51:35.858Z,3.57
2023-05-10T19:54:03.060Z,3.23
2023-05-10T19:56:30.176Z,3.30
2023-05-10T19:58:57.085Z,2.37
2023-05-10T20:01:23.953Z,2.90
2023-05-10T20:03:51.206Z,3.33
2023-05-10T20:06:18.165Z,3.30
2023-05-10T20:08:45.682Z,4.50
2023-05-10T20:11:13.174Z,3.43
2023-05-10T20:13:39.999Z,2.73
2023-05-10T20:16:07.343Z,4.13
2023-05-10T20:18:34.348Z,3.60
2023-05-10T20:21:01.600Z,3.57
2023-05-10T20:23:28.535Z,4.17
2023-05-10T20:25:55.828Z,4.77
2023-05-10T20:28:24.116Z,4.93
2023-05-10T20:30:53.294Z,3.53
2023-05-10T20:33:21.125Z,3.10
2023-05-10T20:35:48.451Z,3.20
2023-05-10T20:38:15.557Z,3.67
2023-05-10T20:40:42.605Z,2.33
2023-05-10T20:43:09.650Z,2.63
2023-05-10T20:45:37.958Z,1.97
2023-05-10T20:48:05.420Z,2.33
2023-05-10T20:50:32.784Z,3.93
2023-05-10T20:53:00.646Z,2.93
2023-05-10T20:55:28.563Z,3.77
2023-05-10T20:57:55.618Z,2.60
2023-05-10T21:00:22.627Z,4.17
2023-05-10T21:02:49.786Z,4.10
2023-05-10T21:05:19.762Z,2.73
2023-05-10T21:07:46.952Z,3.27
2023-05-10T21:10:13.928Z,4.30
2023-05-10T21:12:40.973Z,4.80
2023-05-10T21:15:08.649Z,4.37
2023-05-10T21:17:35.779Z,3.60
2023-05-10T21:20:03.805Z,2.80
2023-05-10T21:22:30.779Z,2.80
2023-05-10T21:24:57.643Z,2.90
2023-05-10T21:27:24.481Z,4.33
2023-05-10T21:29:52.581Z,3.67
2023-05-10T21:32:19.998Z,3.10
2023-05-10T21:34:47.182Z,3.17
2023-05-10T21:37:16.871Z,2.73
2023-05-10T21:39:44.605Z,2.00
2023-05-10T21:42:11.718Z,1.83
2023-05-10T21:44:38.955Z,1.70
2023-05-10T21:47:05.774Z,1.87
2023-05-10T21:49:33.016Z,2.27
2023-05-10T21:51:59.917Z,2.20
2023-05-10T21:54:27.111Z,2.23
2023-05-10T21:56:54.038Z,1.40
2023-05-10T21:59:21.786Z,1.67
2023-05-10T22:01:49.035Z,1.47
2023-05-10T22:04:15.924Z,3.57
2023-05-10T22:06:42.955Z,1.43
2023-05-10T22:09:11.799Z,1.17
2023-05-10T22:11:38.618Z,1.73
2023-05-10T22:14:06.322Z,1.27
2023-05-10T22:16:33.898Z,1.17
2023-05-10T22:19:00.886Z,1.30
2023-05-10T22:21:28.230Z,1.00
2023-05-10T22:23:55.300Z,1.20
2023-05-10T22:26:22.963Z,0.90
2023-05-10T22:28:50.222Z,1.27
2023-05-10T22:31:17.127Z,2.83
2023-05-10T22:33:44.091Z,1.30
2023-05-10T22:36:10.985Z,1.60
2023-05-10T22:38:37.980Z,1.13
2023-05-10T22:41:04.837Z,0.90
2023-05-10T22:43:31.804Z,1.83
2023-05-10T22:45:58.753Z,1.60
2023-05-10T22:48:25.811Z,1.73
2023-05-10T22:50:52.750Z,1.87
2023-05-10T22:53:19.702Z,2.13
2023-05-10T22:55:47.225Z,1.07
2023-05-10T22:58:14.195Z,1.13
2023-05-10T23:00:41.388Z,1.43
2023-05-10T23:03:08.666Z,0.93
2023-05-10T23:05:36.006Z,1.27
2023-05-10T23:08:03.418Z,1.73
2023-05-10T23:10:30.297Z,1.10
2023-05-10T23:12:57.215Z,1.00
2023-05-10T23:15:24.309Z,1.10
2023-05-10T23:17:51.200Z,1.53
2023-05-10T23:20:18.370Z,1.17
2023-05-10T23:22:45.631Z,1.07
2023-05-10T23:25:12.468Z,1.60
2023-05-10T23:27:40.218Z,1.50
2023-05-10T23:30:07.850Z,1.73
2023-05-10T23:32:34.695Z,1.47
2023-05-10T23:35:02.100Z,1.73
2023-05-10T23:37:29.030Z,2.10
2023-05-10T23:39:56.080Z,1.80
2023-05-10T23:42:23.142Z,1.77
2023-05-10T23:44:52.583Z,1.97
2023-05-10T23:47:19.873Z,1.83
2023-05-10T23:49:46.989Z,2.30
2023-05-10T23:52:14.179Z,2.43
2023-05-10T23:54:41.228Z,2.07
2023-05-10T23:57:08.144Z,4.50
2023-05-10T23:59:35.308Z,3.07
